Time;durP1;ratioP1;P1;durP2;ratioP2;P2;SDS_P1;SDS_P2;PMS_P1;PMS_P2;Temp;Humidity;BMP_temperature;BMP_pressure;BME280_temperature;BME280_humidity;BME280_pressure;Samples;Min_cycle;Max_cycle;Signal;HPM_P1;HPM_P2
2023/12/11 00:00:45;;;;;;;;;;;;;;;;;;6251824;23;19919;-92
2023/12/11 00:03:09;;;;;;;;;;;;;;;;;;6250241;23;19938;-92
2023/12/11 00:05:35;;;;;;;;;;;;;;;;;;6248157;23;19904;-92
2023/12/11 00:08:01;;;;;;;;;;;;;;;;;;6251996;23;19903;-93
2023/12/11 00:10:27;;;;;;;;;;;;;;;;;;6248386;23;19935;-95
2023/12/11 00:12:53;;;;;;;;;;;;;;;;;;6249660;23;19910;-93
2023/12/11 00:15:19;;;;;;;;;;;;;;;;;;6248435;23;19910;-93
2023/12/11 00:17:47;;;;;;;;;;;;;;;;;;6243486;23;19931;-93
2023/12/11 00:20:16;;;;;;;;;;;;;;;;;;6244778;23;20322;-93
2023/12/11 00:22:42;;;;;;;;;;;;;;;;;;6245015;23;20395;-93
2023/12/11 00:25:10;;;;;;;;;;;;;;;;;;6244050;23;19914;-93
2023/12/11 00:27:36;;;;;;;;;;;;;;;;;;6245245;23;19915;-92
2023/12/11 00:30:02;;;;;;;;;;;;;;;;;;6245773;22;19907;-92
2023/12/11 00:32:28;;;;;;;;;;;;;;;;;;6249223;22;19943;-92
2023/12/11 00:34:54;;;;;;;;;;;;;;;;;;6248023;22;19907;-92
2023/12/11 00:37:20;;;;;;;;;;;;;;;;;;6248970;22;19990;-94
2023/12/11 00:39:46;;;;;;;;;;;;;;;;;;6248822;22;19903;-93
2023/12/11 00:42:12;;;;;;;;;;;;;;;;;;6248617;22;19907;-93
2023/12/11 00:44:38;;;;;;;;;;;;;;;;;;6249293;22;19908;-92
2023/12/11 00:47:04;;;;;;;;;;;;;;;;;;6249579;22;20571;-92
2023/12/11 00:49:30;;;;;;;;;;;;;;;;;;6247894;22;19978;-94
2023/12/11 00:51:56;;;;;;;;;;;;;;;;;;6274974;22;20263;-92
2023/12/11 00:54:23;;;;;;;;;;;;;;;;;;6250310;22;20384;-93
2023/12/11 00:56:49;;;;;;;;;;;;;;;;;;6251271;22;20009;-92
2023/12/11 00:59:15;;;;;;;;;;;;;;;;;;6253335;22;19910;-92
2023/12/11 01:01:41;;;;;;;;;;;;;;;;;;6252005;22;20312;-92
2023/12/11 01:04:08;;;;;;;;;;;;;;;;;;6251829;22;20005;-92
2023/12/11 01:06:33;;;;;;;;;;;;;;;;;;6251952;22;19907;-93
2023/12/11 01:08:59;;;;;;;;;;;;;;;;;;6250765;22;19910;-93
2023/12/11 01:11:25;;;;;;;;;;;;;;;;;;6251783;22;19908;-92
2023/12/11 01:13:51;;;;;;;;;;;;;;;;;;6251223;22;19904;-92
2023/12/11 01:16:17;;;;;;;;;;;;;;;;;;6250900;22;19942;-93
2023/12/11 01:18:43;;;;;;;;;;;;;;;;;;6251552;22;19904;-92
2023/12/11 01:21:09;;;;;;;;;;;;;;;;;;6252488;22;19911;-92
2023/12/11 01:23:35;;;;;;;;;;;;;;;;;;6251026;22;19969;-93
2023/12/11 01:26:01;;;;;;;;;;;;;;;;;;6251520;22;20384;-93
2023/12/11 01:28:27;;;;;;;;;;;;;;;;;;6252158;22;20492;-92
2023/12/11 01:30:53;;;;;;;;;;;;;;;;;;6249556;23;19958;-93
2023/12/11 01:33:19;;;;;;;;;;;;;;;;;;6246977;23;19908;-93
2023/12/11 01:35:45;;;;;;;;;;;;;;;;;;6246388;23;19908;-92
2023/12/11 01:38:11;;;;;;;;;;;;;;;;;;6244423;23;19942;-92
2023/12/11 01:40:38;;;;;;;;;;;;;;;;;;6246640;23;19919;-92
2023/12/11 01:43:04;;;;;;;;;;;;;;;;;;6247689;23;19907;-92
2023/12/11 01:45:29;;;;;;;;;;;;;;;;;;6248434;23;19907;-92
2023/12/11 01:47:55;;;;;;;;;;;;;;;;;;6245221;23;19941;-92
2023/12/11 01:50:21;;;;;;;;;;;;;;;;;;6245969;23;19910;-92
2023/12/11 01:52:47;;;;;;;;;;;;;;;;;;6246183;23;19969;-93
2023/12/11 01:55:14;;;;;;;;;;;;;;;;;;6245736;23;19915;-92
2023/12/11 01:57:43;;;;;;;;;;;;;;;;;;6246427;23;19911;-92
2023/12/11 02:00:09;;;;;;;;;;;;;;;;;;6245291;23;19919;-92
2023/12/11 02:02:35;;;;;;;;;;;;;;;;;;6245820;23;19903;-92
2023/12/11 02:05:02;;;;;;;;;;;;;;;;;;6249751;23;19990;-92
2023/12/11 02:07:29;;;;;;;;;;;;;;;;;;6245820;23;19973;-93
2023/12/11 02:09:55;;;;;;;;;;;;;;;;;;6245599;23;19926;-94
2023/12/11 02:12:21;;;;;;;;;;;;;;;;;;6244985;23;19907;-92
2023/12/11 02:14:47;;;;;;;;;;;;;;;;;;6248411;23;20013;-91
2023/12/11 02:17:13;;;;;;;;;;;;;;;;;;6247950;23;19903;-91
2023/12/11 02:19:39;;;;;;;;;;;;;;;;;;6248101;23;19950;-90
2023/12/11 02:22:05;;;;;;;;;;;;;;;;;;6251093;23;19927;-91
2023/12/11 02:24:31;;;;;;;;;;;;;;;;;;6248503;23;19910;-91
2023/12/11 02:26:57;;;;;;;;;;;;;;;;;;6244728;23;19911;-91
2023/12/11 02:29:24;;;;;;;;;;;;;;;;;;6245447;23;19904;-90
2023/12/11 02:31:53;;;;;;;;;;;;;;;;;;6245615;23;19911;-90
2023/12/11 02:34:19;;;;;;;;;;;;;;;;;;6246654;23;19931;-90
2023/12/11 02:36:45;;;;;;;;;;;;;;;;;;6252532;23;20225;-92
2023/12/11 02:39:11;;;;;;;;;;;;;;;;;;6244653;23;20339;-91
2023/12/11 02:41:37;;;;;;;;;;;;;;;;;;6250345;23;19926;-91
2023/12/11 02:44:03;;;;;;;;;;;;;;;;;;6249482;23;19910;-90
2023/12/11 02:46:29;;;;;;;;;;;;;;;;;;6247157;23;19908;-91
2023/12/11 02:48:55;;;;;;;;;;;;;;;;;;6248984;23;19953;-91
2023/12/11 02:51:21;;;;;;;;;;;;;;;;;;6246955;23;19950;-92
2023/12/11 02:53:46;;;;;;;;;;;;;;;;;;6250379;23;20361;-92
2023/12/11 02:56:12;;;;;;;;;;;;;;;;;;6247803;23;19947;-92
2023/12/11 02:58:38;;;;;;;;;;;;;;;;;;6249915;23;19903;-91
2023/12/11 03:01:04;;;;;;;;;;;;;;;;;;6248608;23;19966;-92
2023/12/11 03:03:30;;;;;;;;;;;;;;;;;;6251904;23;19949;-92
2023/12/11 03:05:58;;;;;;;;;;;;;;;;;;6251308;23;19926;-92
2023/12/11 03:08:25;;;;;;;;;;;;;;;;;;6252634;23;19904;-92
2023/12/11 03:10:51;;;;;;;;;;;;;;;;;;6255290;23;19904;-92
2023/12/11 03:13:17;;;;;;;;;;;;;;;;;;6252732;23;19934;-92
2023/12/11 03:15:43;;;;;;;;;;;;;;;;;;6250275;23;19903;-92
2023/12/11 03:18:09;;;;;;;;;;;;;;;;;;6245905;23;20393;-93
2023/12/11 03:20:37;;;;;;;;;;;;;;;;;;6246927;23;19915;-93
2023/12/11 03:23:03;;;;;;;;;;;;;;;;;;6247314;23;19938;-93
2023/12/11 03:25:28;;;;;;;;;;;;;;;;;;6244869;23;19953;-93
2023/12/11 03:27:54;;;;;;;;;;;;;;;;;;6245879;23;19907;-92
2023/12/11 03:30:20;;;;;;;;;;;;;;;;;;6249314;22;19904;-91
2023/12/11 03:32:46;;;;;;;;;;;;;;;;;;6250406;22;19935;-91
2023/12/11 03:35:12;;;;;;;;;;;;;;;;;;6248741;22;19907;-91
2023/12/11 03:37:41;;;;;;;;;;;;;;;;;;6252127;22;19963;-92
2023/12/11 03:40:08;;;;;;;;;;;;;;;;;;6255620;22;20341;-91
2023/12/11 03:42:34;;;;;;;;;;;;;;;;;;6255833;22;19918;-92
2023/12/11 03:45:00;;;;;;;;;;;;;;;;;;6256496;22;19904;-92
2023/12/11 03:47:27;;;;;;;;;;;;;;;;;;6254701;22;19918;-92
2023/12/11 03:50:09;;;;;;;;;;;;;;;;;;6253573;22;19903;-92
2023/12/11 03:52:35;;;;;;;;;;;;;;;;;;6254474;22;19903;-92
2023/12/11 03:55:01;;;;;;;;;;;;;;;;;;6255989;22;20337;-93
2023/12/11 03:57:27;;;;;;;;;;;;;;;;;;6250956;22;19908;-92
2023/12/11 03:59:53;;;;;;;;;;;;;;;;;;6245509;22;20379;-92
2023/12/11 04:02:19;;;;;;;;;;;;;;;;;;6245267;22;19910;-92
2023/12/11 04:04:44;;;;;;;;;;;;;;;;;;6244431;22;19933;-91
2023/12/11 04:07:10;;;;;;;;;;;;;;;;;;6246794;22;19982;-92
2023/12/11 04:09:36;;;;;;;;;;;;;;;;;;6246088;22;19986;-91
2023/12/11 04:12:02;;;;;;;;;;;;;;;;;;6246514;22;19978;-92
2023/12/11 04:14:28;;;;;;;;;;;;;;;;;;6246614;22;19930;-91
2023/12/11 04:16:54;;;;;;;;;;;;;;;;;;6246476;22;19914;-91
2023/12/11 04:19:20;;;;;;;;;;;;;;;;;;6252476;22;19903;-92
2023/12/11 04:21:46;;;;;;;;;;;;;;;;;;6253821;22;19918;-93
2023/12/11 04:24:12;;;;;;;;;;;;;;;;;;6251268;22;19907;-92
2023/12/11 04:26:38;;;;;;;;;;;;;;;;;;6252147;22;19904;-91
2023/12/11 04:29:04;;;;;;;;;;;;;;;;;;6247747;22;19974;-91
2023/12/11 04:31:30;;;;;;;;;;;;;;;;;;6243710;23;19916;-91
2023/12/11 04:33:56;;;;;;;;;;;;;;;;;;6243307;23;19903;-91
2023/12/11 04:36:22;;;;;;;;;;;;;;;;;;6243716;23;19903;-92
2023/12/11 04:38:48;;;;;;;;;;;;;;;;;;6243666;23;19927;-92
2023/12/11 04:41:14;;;;;;;;;;;;;;;;;;6243049;23;20437;-92
2023/12/11 04:43:39;;;;;;;;;;;;;;;;;;6242549;23;19904;-92
2023/12/11 04:46:05;;;;;;;;;;;;;;;;;;6243631;23;19966;-91
2023/12/11 04:48:31;;;;;;;;;;;;;;;;;;6242032;23;19943;-91
2023/12/11 04:50:57;;;;;;;;;;;;;;;;;;6243494;23;20330;-90
2023/12/11 04:53:23;;;;;;;;;;;;;;;;;;6242698;23;19910;-92
2023/12/11 04:55:49;;;;;;;;;;;;;;;;;;6243077;23;19961;-91
2023/12/11 04:58:15;;;;;;;;;;;;;;;;;;6243901;23;19912;-92
2023/12/11 05:00:41;;;;;;;;;;;;;;;;;;6246663;23;19995;-92
2023/12/11 05:03:07;;;;;;;;;;;;;;;;;;6242639;23;19908;-91
2023/12/11 05:05:34;;;;;;;;;;;;;;;;;;6242202;23;19938;-92
2023/12/11 05:08:00;;;;;;;;;;;;;;;;;;6242863;23;19931;-92
2023/12/11 05:10:26;;;;;;;;;;;;;;;;;;6243692;23;19929;-91
2023/12/11 05:12:52;;;;;;;;;;;;;;;;;;6243752;23;19907;-91
2023/12/11 05:15:18;;;;;;;;;;;;;;;;;;6244168;23;19907;-91
2023/12/11 05:17:45;;;;;;;;;;;;;;;;;;6246967;23;19948;-92
2023/12/11 05:20:12;;;;;;;;;;;;;;;;;;6243046;23;19920;-91
2023/12/11 05:22:38;;;;;;;;;;;;;;;;;;6243894;23;19912;-91
2023/12/11 05:25:04;;;;;;;;;;;;;;;;;;6244197;23;19975;-92
2023/12/11 05:27:30;;;;;;;;;;;;;;;;;;6244599;23;19914;-91
2023/12/11 05:29:56;;;;;;;;;;;;;;;;;;6244633;23;19908;-93
2023/12/11 05:32:22;;;;;;;;;;;;;;;;;;6269118;22;19911;-91
2023/12/11 05:34:48;;;;;;;;;;;;;;;;;;6252181;22;19907;-92
2023/12/11 05:37:16;;;;;;;;;;;;;;;;;;6248800;22;19907;-93
2023/12/11 05:39:42;;;;;;;;;;;;;;;;;;6247541;22;19903;-92
2023/12/11 05:42:07;;;;;;;;;;;;;;;;;;6246312;22;20346;-91
2023/12/11 05:44:33;;;;;;;;;;;;;;;;;;6247528;22;19908;-92
2023/12/11 05:46:59;;;;;;;;;;;;;;;;;;6248159;22;19903;-94
2023/12/11 05:49:25;;;;;;;;;;;;;;;;;;6247982;22;19911;-93
2023/12/11 05:51:53;;;;;;;;;;;;;;;;;;6249860;22;19926;-94
2023/12/11 05:54:19;;;;;;;;;;;;;;;;;;6252983;22;20214;-92
2023/12/11 05:56:45;;;;;;;;;;;;;;;;;;6248517;22;19953;-92
2023/12/11 05:59:11;;;;;;;;;;;;;;;;;;6246256;22;19914;-92
2023/12/11 06:01:37;;;;;;;;;;;;;;;;;;6247116;22;19998;-91
2023/12/11 06:04:03;;;;;;;;;;;;;;;;;;6245102;22;19930;-91
2023/12/11 06:06:29;;;;;;;;;;;;;;;;;;6246906;22;20237;-91
2023/12/11 06:08:55;;;;;;;;;;;;;;;;;;6246332;22;19933;-91
2023/12/11 06:11:21;;;;;;;;;;;;;;;;;;6246992;22;19950;-91
2023/12/11 06:13:47;;;;;;;;;;;;;;;;;;6245320;22;19907;-91
2023/12/11 06:16:13;;;;;;;;;;;;;;;;;;6247577;22;20314;-92
2023/12/11 06:18:39;;;;;;;;;;;;;;;;;;6246037;22;20530;-92
2023/12/11 06:21:05;;;;;;;;;;;;;;;;;;6248496;22;19972;-92
2023/12/11 06:23:31;;;;;;;;;;;;;;;;;;6246995;22;19985;-92
2023/12/11 06:25:57;;;;;;;;;;;;;;;;;;6246223;22;19953;-92
2023/12/11 06:28:23;;;;;;;;;;;;;;;;;;6246795;22;19908;-92
2023/12/11 06:30:49;;;;;;;;;;;;;;;;;;6246235;22;19961;-92
2023/12/11 06:33:15;;;;;;;;;;;;;;;;;;6245709;22;20317;-93
2023/12/11 06:35:41;;;;;;;;;;;;;;;;;;6247563;22;19942;-93
2023/12/11 06:38:07;;;;;;;;;;;;;;;;;;6275327;22;19917;-92
2023/12/11 06:40:33;;;;;;;;;;;;;;;;;;6243731;22;19972;-93
2023/12/11 06:42:59;;;;;;;;;;;;;;;;;;6247843;22;19908;-93
2023/12/11 06:45:24;;;;;;;;;;;;;;;;;;6246416;22;19907;-92
2023/12/11 06:47:50;;;;;;;;;;;;;;;;;;6246903;22;19969;-92
2023/12/11 06:50:19;;;;;;;;;;;;;;;;;;6246309;22;19953;-93
2023/12/11 06:52:45;;;;;;;;;;;;;;;;;;6246568;22;19908;-92
2023/12/11 06:55:11;;;;;;;;;;;;;;;;;;6247149;22;19938;-92
2023/12/11 06:57:37;;;;;;;;;;;;;;;;;;6247218;22;19907;-92
2023/12/11 07:00:05;;;;;;;;;;;;;;;;;;6247903;22;19911;-93
2023/12/11 07:02:31;;;;;;;;;;;;;;;;;;6246474;22;19914;-91
2023/12/11 07:04:57;;;;;;;;;;;;;;;;;;6245826;22;19907;-92
2023/12/11 07:07:23;;;;;;;;;;;;;;;;;;6248134;22;19904;-92
2023/12/11 07:09:49;;;;;;;;;;;;;;;;;;6247076;22;19911;-93
2023/12/11 07:12:15;;;;;;;;;;;;;;;;;;6249839;22;19904;-93
2023/12/11 07:14:41;;;;;;;;;;;;;;;;;;6247163;22;19907;-93
2023/12/11 07:17:07;;;;;;;;;;;;;;;;;;6248686;22;19904;-92
2023/12/11 07:19:33;;;;;;;;;;;;;;;;;;6248548;22;19910;-93
2023/12/11 07:21:59;;;;;;;;;;;;;;;;;;6247800;22;19911;-93
2023/12/11 07:24:25;;;;;;;;;;;;;;;;;;6252466;22;19903;-92
2023/12/11 07:26:51;;;;;;;;;;;;;;;;;;6258150;22;19903;-96
2023/12/11 07:31:53;;;;;;;;;;;;;;;;;;6234797;22;20413;-96
2023/12/11 07:34:21;;;;;;;;;;;;;;;;;;6229298;23;19904;-96
2023/12/11 07:36:55;;;;;;;;;;;;;;;;;;6228211;23;23853;-96
2023/12/11 07:39:25;;;;;;;;;;;;;;;;;;6241606;23;19912;-96
2023/12/11 07:42:03;;;;;;;;;;;;;;;;;;6242128;23;19900;-96
2023/12/11 07:44:45;;;;;;;;;;;;;;;;;;6241868;23;19936;-96
2023/12/11 07:47:21;;;;;;;;;;;;;;;;;;6242924;23;19915;-96
2023/12/11 07:49:52;;;;;;;;;;;;;;;;;;6242616;23;19914;-96
2023/12/11 07:52:24;;;;;;;;;;;;;;;;;;6241403;23;19908;-96
2023/12/11 07:57:39;;;;;;;;;;;;;;;;;;6220235;23;19935;-94
2023/12/11 08:00:09;;;;;;;;;;;;;;;;;;6228265;23;19942;-93
2023/12/11 08:02:35;;;;;;;;;;;;;;;;;;6201756;23;19915;-94
2023/12/11 08:05:02;;;;;;;;;;;;;;;;;;6201859;23;19904;-93
2023/12/11 08:07:28;;;;;;;;;;;;;;;;;;6204501;23;19938;-94
2023/12/11 08:09:54;;;;;;;;;;;;;;;;;;6204021;23;19904;-94
2023/12/11 08:12:20;;;;;;;;;;;;;;;;;;6202781;23;19904;-94
2023/12/11 08:14:46;;;;;;;;;;;;;;;;;;6203235;23;19904;-92
2023/12/11 08:17:12;;;;;;;;;;;;;;;;;;6202798;23;20322;-93
2023/12/11 08:19:41;;;;;;;;;;;;;;;;;;6202134;23;19991;-93
2023/12/11 08:22:08;;;;;;;;;;;;;;;;;;6203028;23;20133;-94
2023/12/11 08:24:34;;;;;;;;;;;;;;;;;;6204216;23;19908;-94
2023/12/11 08:27:00;;;;;;;;;;;;;;;;;;6203328;23;19911;-94
2023/12/11 08:29:26;;;;;;;;;;;;;;;;;;6203040;23;20218;-94
2023/12/11 08:31:52;;;;;;;;;;;;;;;;;;6203876;23;19904;-95
2023/12/11 08:34:20;;;;;;;;;;;;;;;;;;6203101;23;19895;-94
2023/12/11 08:36:46;;;;;;;;;;;;;;;;;;6202473;23;19911;-94
2023/12/11 08:39:12;;;;;;;;;;;;;;;;;;6203311;23;19924;-95
2023/12/11 08:41:38;;;;;;;;;;;;;;;;;;6203320;23;20005;-94
2023/12/11 08:44:04;;;;;;;;;;;;;;;;;;6187303;23;19905;-95
2023/12/11 08:46:31;;;;;;;;;;;;;;;;;;6171805;23;19911;-94
2023/12/11 08:48:58;;;;;;;;;;;;;;;;;;6172797;23;19905;-94
2023/12/11 08:51:24;;;;;;;;;;;;;;;;;;6171619;23;19904;-95
2023/12/11 08:53:50;;;;;;;;;;;;;;;;;;6171856;23;19904;-95
2023/12/11 08:56:16;;;;;;;;;;;;;;;;;;6172121;23;19908;-94
2023/12/11 08:58:46;;;;;;;;;;;;;;;;;;6182045;23;19939;-95
2023/12/11 09:01:12;;;;;;;;;;;;;;;;;;6201331;23;20206;-94
2023/12/11 09:03:40;;;;;;;;;;;;;;;;;;6227604;23;19946;-94
2023/12/11 09:06:06;;;;;;;;;;;;;;;;;;6201207;23;19904;-94
2023/12/11 09:08:32;;;;;;;;;;;;;;;;;;6201372;23;19930;-94
2023/12/11 09:11:00;;;;;;;;;;;;;;;;;;6202745;23;20323;-94
2023/12/11 09:13:26;;;;;;;;;;;;;;;;;;6200886;23;19938;-94
2023/12/11 09:15:52;;;;;;;;;;;;;;;;;;6202036;23;19907;-94
2023/12/11 09:18:18;;;;;;;;;;;;;;;;;;6200665;23;19958;-95
2023/12/11 09:20:44;;;;;;;;;;;;;;;;;;6201850;23;19916;-95
2023/12/11 09:23:11;;;;;;;;;;;;;;;;;;6203655;23;19908;-94
2023/12/11 09:25:38;;;;;;;;;;;;;;;;;;6226955;23;19930;-94
2023/12/11 09:28:04;;;;;;;;;;;;;;;;;;6200711;23;19987;-94
2023/12/11 09:30:30;;;;;;;;;;;;;;;;;;6199273;23;19915;-94
2023/12/11 09:32:56;;;;;;;;;;;;;;;;;;6199553;23;19908;-95
2023/12/11 09:35:24;;;;;;;;;;;;;;;;;;6199069;23;19919;-94
2023/12/11 09:37:50;;;;;;;;;;;;;;;;;;6200364;23;19987;-94
2023/12/11 09:40:16;;;;;;;;;;;;;;;;;;6199338;23;19939;-93
2023/12/11 09:42:43;;;;;;;;;;;;;;;;;;6199192;23;19959;-93
2023/12/11 09:45:09;;;;;;;;;;;;;;;;;;6199520;23;19910;-92
2023/12/11 09:47:35;;;;;;;;;;;;;;;;;;6199138;23;19904;-93
2023/12/11 09:50:01;;;;;;;;;;;;;;;;;;6201278;23;19910;-94
2023/12/11 09:52:51;;;;;;;;;;;;;;;;;;6200165;23;19989;-95
2023/12/11 09:55:13;;;;;;;;;;;;;;;;;;6224198;23;19987;-94
2023/12/11 09:57:39;;;;;;;;;;;;;;;;;;6199007;23;19911;-94
2023/12/11 10:00:06;;;;;;;;;;;;;;;;;;6198004;23;19920;-94
2023/12/11 10:02:32;;;;;;;;;;;;;;;;;;6201500;23;19915;-94
2023/12/11 10:04:58;;;;;;;;;;;;;;;;;;6199129;23;19928;-93
2023/12/11 10:07:24;;;;;;;;;;;;;;;;;;6199432;23;19904;-95
2023/12/11 10:09:50;;;;;;;;;;;;;;;;;;6200077;23;19911;-94
2023/12/11 10:12:16;;;;;;;;;;;;;;;;;;6196866;23;19904;-94
2023/12/11 10:14:45;;;;;;;;;;;;;;;;;;6204210;23;19916;-94
2023/12/11 10:17:11;;;;;;;;;;;;;;;;;;6202511;23;19919;-94
2023/12/11 10:19:37;;;;;;;;;;;;;;;;;;6199428;23;19915;-94
2023/12/11 10:22:06;;;;;;;;;;;;;;;;;;6195614;23;19908;-93
2023/12/11 10:24:32;;;;;;;;;;;;;;;;;;6197654;23;20338;-94
2023/12/11 10:26:58;;;;;;;;;;;;;;;;;;6195635;23;19904;-94
2023/12/11 10:29:25;;;;;;;;;;;;;;;;;;6195224;23;19904;-93
2023/12/11 10:31:54;;;;;;;;;;;;;;;;;;6194998;23;19904;-94
2023/12/11 10:34:20;;;;;;;;;;;;;;;;;;6195829;23;19904;-93
2023/12/11 10:36:46;;;;;;;;;;;;;;;;;;6195523;23;19926;-93
2023/12/11 10:39:13;;;;;;;;;;;;;;;;;;6194973;23;19904;-93
2023/12/11 10:41:39;;;;;;;;;;;;;;;;;;6195493;23;19908;-94
2023/12/11 10:44:05;;;;;;;;;;;;;;;;;;6195643;23;19908;-93
2023/12/11 10:46:31;;;;;;;;;;;;;;;;;;6196495;23;19908;-95
2023/12/11 10:48:58;;;;;;;;;;;;;;;;;;6200251;23;20289;-93
2023/12/11 10:51:24;;;;;;;;;;;;;;;;;;6196837;23;19904;-94
2023/12/11 10:53:51;;;;;;;;;;;;;;;;;;6195379;23;20285;-94
2023/12/11 10:56:17;;;;;;;;;;;;;;;;;;6195600;23;20323;-94
2023/12/11 10:58:43;;;;;;;;;;;;;;;;;;6197932;23;19966;-94
2023/12/11 11:01:12;;;;;;;;;;;;;;;;;;6195965;23;19919;-93
2023/12/11 11:03:38;;;;;;;;;;;;;;;;;;6195772;23;19904;-95
2023/12/11 11:06:04;;;;;;;;;;;;;;;;;;6195656;23;19934;-94
2023/12/11 11:08:31;;;;;;;;;;;;;;;;;;6194763;23;19926;-94
2023/12/11 11:11:01;;;;;;;;;;;;;;;;;;6195069;23;19943;-94
2023/12/11 11:13:28;;;;;;;;;;;;;;;;;;6194104;23;20352;-95
2023/12/11 11:15:54;;;;;;;;;;;;;;;;;;6220520;23;19907;-94
2023/12/11 11:18:23;;;;;;;;;;;;;;;;;;6193593;23;19911;-94
2023/12/11 11:20:49;;;;;;;;;;;;;;;;;;6193213;23;19911;-93
2023/12/11 11:23:18;;;;;;;;;;;;;;;;;;6193478;23;19982;-94
2023/12/11 11:25:50;;;;;;;;;;;;;;;;;;6194214;23;19903;-93
2023/12/11 11:28:16;;;;;;;;;;;;;;;;;;6193480;23;20237;-93
2023/12/11 11:30:44;;;;;;;;;;;;;;;;;;6192149;23;19931;-94
2023/12/11 11:33:10;;;;;;;;;;;;;;;;;;6191278;23;19904;-95
2023/12/11 11:35:36;;;;;;;;;;;;;;;;;;6191888;23;19976;-94
2023/12/11 11:38:02;;;;;;;;;;;;;;;;;;6198230;23;19908;-94
2023/12/11 11:40:28;;;;;;;;;;;;;;;;;;6192249;23;19912;-94
2023/12/11 11:42:54;;;;;;;;;;;;;;;;;;6192448;23;19908;-94
2023/12/11 11:45:20;;;;;;;;;;;;;;;;;;6191376;23;19990;-94
2023/12/11 11:47:46;;;;;;;;;;;;;;;;;;6191883;23;19915;-94
2023/12/11 11:50:16;;;;;;;;;;;;;;;;;;6191561;23;20031;-94
2023/12/11 11:52:42;;;;;;;;;;;;;;;;;;6192171;23;19904;-94
2023/12/11 11:55:09;;;;;;;;;;;;;;;;;;6193519;23;19904;-94
2023/12/11 11:57:35;;;;;;;;;;;;;;;;;;6191824;23;19915;-95
2023/12/11 12:00:01;;;;;;;;;;;;;;;;;;6190999;23;19982;-94
2023/12/11 12:02:31;;;;;;;;;;;;;;;;;;6191444;23;19907;-94
2023/12/11 12:04:57;;;;;;;;;;;;;;;;;;6190347;23;19904;-93
2023/12/11 12:07:23;;;;;;;;;;;;;;;;;;6191266;23;19958;-94
2023/12/11 12:09:49;;;;;;;;;;;;;;;;;;6190722;23;19930;-94
2023/12/11 12:12:24;;;;;;;;;;;;;;;;;;6191824;23;20273;-95
2023/12/11 12:14:49;;;;;;;;;;;;;;;;;;6192045;23;19932;-94
2023/12/11 12:17:27;;;;;;;;;;;;;;;;;;6193845;23;19919;-96
2023/12/11 12:19:53;;;;;;;;;;;;;;;;;;6192646;23;19978;-94
2023/12/11 12:22:19;;;;;;;;;;;;;;;;;;6191969;23;19915;-95
2023/12/11 12:24:48;;;;;;;;;;;;;;;;;;6190327;23;19904;-94
2023/12/11 12:27:14;;;;;;;;;;;;;;;;;;6190416;23;19908;-95
2023/12/11 12:29:40;;;;;;;;;;;;;;;;;;6192206;23;19908;-95
2023/12/11 12:32:06;;;;;;;;;;;;;;;;;;6190176;23;19979;-94
2023/12/11 12:34:37;;;;;;;;;;;;;;;;;;6192712;23;20416;-95
2023/12/11 12:37:03;;;;;;;;;;;;;;;;;;6194276;23;19912;-95
2023/12/11 12:39:29;;;;;;;;;;;;;;;;;;6191159;23;19908;-96
2023/12/11 12:41:55;;;;;;;;;;;;;;;;;;6190606;23;20123;-95
2023/12/11 12:44:21;;;;;;;;;;;;;;;;;;6190008;23;19910;-94
2023/12/11 12:46:48;;;;;;;;;;;;;;;;;;6191204;23;19908;-94
2023/12/11 12:49:13;;;;;;;;;;;;;;;;;;6191604;23;19908;-94
2023/12/11 12:51:41;;;;;;;;;;;;;;;;;;6192884;23;19907;-94
2023/12/11 12:54:07;;;;;;;;;;;;;;;;;;6192551;23;19904;-94
2023/12/11 12:56:33;;;;;;;;;;;;;;;;;;6194912;23;19914;-94
2023/12/11 12:58:59;;;;;;;;;;;;;;;;;;6192520;23;19947;-94
2023/12/11 13:01:25;;;;;;;;;;;;;;;;;;6193182;23;19965;-93
2023/12/11 13:03:51;;;;;;;;;;;;;;;;;;6193242;23;19908;-94
2023/12/11 13:06:17;;;;;;;;;;;;;;;;;;6193642;23;20281;-94
2023/12/11 13:08:43;;;;;;;;;;;;;;;;;;6193902;23;19914;-94
2023/12/11 13:11:09;;;;;;;;;;;;;;;;;;6193706;23;19908;-94
2023/12/11 13:13:35;;;;;;;;;;;;;;;;;;6193948;23;19966;-93
2023/12/11 13:16:02;;;;;;;;;;;;;;;;;;6193825;23;19908;-94
2023/12/11 13:18:35;;;;;;;;;;;;;;;;;;6218946;23;19911;-93
2023/12/11 13:21:02;;;;;;;;;;;;;;;;;;6193316;23;19931;-94
2023/12/11 13:23:27;;;;;;;;;;;;;;;;;;6192444;23;19911;-94
2023/12/11 13:25:53;;;;;;;;;;;;;;;;;;6192352;23;19954;-92
2023/12/11 13:28:20;;;;;;;;;;;;;;;;;;6193585;23;20326;-94
2023/12/11 13:30:45;;;;;;;;;;;;;;;;;;6192537;23;19958;-94
2023/12/11 13:33:11;;;;;;;;;;;;;;;;;;6192621;23;20002;-93
2023/12/11 13:35:37;;;;;;;;;;;;;;;;;;6193433;23;19904;-93
2023/12/11 13:38:03;;;;;;;;;;;;;;;;;;6193320;23;19983;-95
2023/12/11 13:40:35;;;;;;;;;;;;;;;;;;6193669;23;19908;-93
2023/12/11 13:43:01;;;;;;;;;;;;;;;;;;6192725;23;20317;-94
2023/12/11 13:45:27;;;;;;;;;;;;;;;;;;6193846;23;19955;-93
2023/12/11 13:47:53;;;;;;;;;;;;;;;;;;6194366;23;19962;-95
2023/12/11 13:58:45;;;;;;;;;;;;;;;;;;6137400;23;20430;-93
2023/12/11 14:01:20;;;;;;;;;;;;;;;;;;6134005;23;19909;-93
2023/12/11 14:03:46;;;;;;;;;;;;;;;;;;6137857;23;19912;-93
2023/12/11 14:06:15;;;;;;;;;;;;;;;;;;6135300;23;20493;-93
2023/12/11 14:08:45;;;;;;;;;;;;;;;;;;6135674;23;19908;-94
2023/12/11 14:11:11;;;;;;;;;;;;;;;;;;6155623;23;19951;-93
2023/12/11 14:13:37;;;;;;;;;;;;;;;;;;6190390;23;19908;-93
2023/12/11 14:16:03;;;;;;;;;;;;;;;;;;6190315;23;19951;-93
2023/12/11 14:18:30;;;;;;;;;;;;;;;;;;6191477;23;19920;-93
2023/12/11 14:20:59;;;;;;;;;;;;;;;;;;6190478;23;19908;-95
2023/12/11 14:23:26;;;;;;;;;;;;;;;;;;6188837;23;19915;-94
2023/12/11 14:25:52;;;;;;;;;;;;;;;;;;6189160;23;19911;-94
2023/12/11 14:28:18;;;;;;;;;;;;;;;;;;6189092;23;20261;-94
2023/12/11 14:30:47;;;;;;;;;;;;;;;;;;6189945;23;20548;-94
2023/12/11 14:33:13;;;;;;;;;;;;;;;;;;6187731;23;19909;-95
2023/12/11 14:35:39;;;;;;;;;;;;;;;;;;6187851;23;19910;-94
2023/12/11 14:38:11;;;;;;;;;;;;;;;;;;6189153;23;19908;-94
2023/12/11 14:40:37;;;;;;;;;;;;;;;;;;6187466;23;19983;-94
2023/12/11 14:43:03;;;;;;;;;;;;;;;;;;6187925;23;19968;-94
2023/12/11 14:45:30;;;;;;;;;;;;;;;;;;6188577;23;19911;-94
2023/12/11 14:47:57;;;;;;;;;;;;;;;;;;6187688;23;19904;-95
2023/12/11 14:50:26;;;;;;;;;;;;;;;;;;6186869;23;19908;-95
2023/12/11 14:52:53;;;;;;;;;;;;;;;;;;6186921;23;19964;-94
2023/12/11 14:55:20;;;;;;;;;;;;;;;;;;6186733;23;19904;-94
2023/12/11 14:57:46;;;;;;;;;;;;;;;;;;6187110;23;19908;-94
2023/12/11 15:00:12;;;;;;;;;;;;;;;;;;6187916;23;19998;-94
2023/12/11 15:02:41;;;;;;;;;;;;;;;;;;6192422;23;20277;-94
2023/12/11 15:05:07;;;;;;;;;;;;;;;;;;6190771;23;19914;-94
2023/12/11 15:07:33;;;;;;;;;;;;;;;;;;6192050;23;19983;-95
2023/12/11 15:10:00;;;;;;;;;;;;;;;;;;6190865;23;19903;-94
2023/12/11 15:12:26;;;;;;;;;;;;;;;;;;6192518;23;19912;-94
2023/12/11 15:14:52;;;;;;;;;;;;;;;;;;6193863;23;19939;-95
2023/12/11 15:17:18;;;;;;;;;;;;;;;;;;6190017;23;19931;-94
2023/12/11 15:19:51;;;;;;;;;;;;;;;;;;6194270;23;20345;-95
2023/12/11 15:22:16;;;;;;;;;;;;;;;;;;6192321;23;19963;-95
2023/12/11 15:24:43;;;;;;;;;;;;;;;;;;6191885;23;19907;-95
2023/12/11 15:27:09;;;;;;;;;;;;;;;;;;6190427;23;19911;-95
2023/12/11 15:29:35;;;;;;;;;;;;;;;;;;6191069;23;19935;-95
2023/12/11 15:32:01;;;;;;;;;;;;;;;;;;6190996;23;19912;-95
2023/12/11 15:34:27;;;;;;;;;;;;;;;;;;6190918;23;19908;-93
2023/12/11 15:36:53;;;;;;;;;;;;;;;;;;6190877;23;19991;-94
2023/12/11 15:39:22;;;;;;;;;;;;;;;;;;6190649;23;19915;-94
2023/12/11 15:41:48;;;;;;;;;;;;;;;;;;6190454;23;20345;-96
2023/12/11 15:44:15;;;;;;;;;;;;;;;;;;6192135;23;19912;-95
2023/12/11 15:46:42;;;;;;;;;;;;;;;;;;6191663;23;20358;-95
2023/12/11 15:49:11;;;;;;;;;;;;;;;;;;6216164;23;20338;-95
2023/12/11 15:51:37;;;;;;;;;;;;;;;;;;6190198;23;19907;-95
2023/12/11 15:54:03;;;;;;;;;;;;;;;;;;6189322;23;19912;-93
2023/12/11 15:56:32;;;;;;;;;;;;;;;;;;6191681;23;20377;-96
2023/12/11 15:58:58;;;;;;;;;;;;;;;;;;6189845;23;19940;-94
2023/12/11 16:01:25;;;;;;;;;;;;;;;;;;6189238;23;19927;-95
2023/12/11 16:03:51;;;;;;;;;;;;;;;;;;6189301;23;20327;-95
2023/12/11 16:06:18;;;;;;;;;;;;;;;;;;6190056;23;19904;-95
2023/12/11 16:08:44;;;;;;;;;;;;;;;;;;6190134;23;19908;-95
2023/12/11 16:11:10;;;;;;;;;;;;;;;;;;6189826;23;20388;-96
2023/12/11 16:13:36;;;;;;;;;;;;;;;;;;6188932;23;19917;-95
2023/12/11 16:16:03;;;;;;;;;;;;;;;;;;6188965;23;19987;-96
2023/12/11 16:18:29;;;;;;;;;;;;;;;;;;6190227;23;19904;-95
2023/12/11 16:20:55;;;;;;;;;;;;;;;;;;6191141;23;19918;-96
2023/12/11 16:23:27;;;;;;;;;;;;;;;;;;6189409;23;19907;-96
2023/12/11 16:25:53;;;;;;;;;;;;;;;;;;6188889;23;20342;-95
2023/12/11 16:28:19;;;;;;;;;;;;;;;;;;6195538;23;19941;-95
2023/12/11 16:30:45;;;;;;;;;;;;;;;;;;6194765;23;19919;-95
2023/12/11 16:33:11;;;;;;;;;;;;;;;;;;6195679;23;19918;-94
2023/12/11 16:35:38;;;;;;;;;;;;;;;;;;6193844;23;19904;-96
2023/12/11 16:38:03;;;;;;;;;;;;;;;;;;6195278;23;19908;-96
2023/12/11 16:40:31;;;;;;;;;;;;;;;;;;6195329;23;19912;-95
2023/12/11 16:42:59;;;;;;;;;;;;;;;;;;6190528;23;20326;-93
2023/12/11 16:45:25;;;;;;;;;;;;;;;;;;6215722;23;19912;-93
2023/12/11 16:47:53;;;;;;;;;;;;;;;;;;6189283;23;19904;-93
2023/12/11 16:50:19;;;;;;;;;;;;;;;;;;6188905;23;19904;-94
2023/12/11 16:52:48;;;;;;;;;;;;;;;;;;6190172;23;19911;-93
2023/12/11 16:55:14;;;;;;;;;;;;;;;;;;6189104;23;19961;-93